sensor_id;sensor_type;location;lat;lon;timestamp;pressure;altitude;pressure_sealevel;temperature
74533;BMP180;63012;51.096;-115.366;2022-12-29T00:00:19;85240.20;;;0.46
74533;BMP180;63012;51.096;-115.366;2022-12-29T00:02:46;85245.60;;;0.48
74533;BMP180;63012;51.096;-115.366;2022-12-29T00:05:13;85241.60;;;0.40
74533;BMP180;63012;51.096;-115.366;2022-12-29T00:07:41;85246.20;;;0.40
74533;BMP180;63012;51.096;-115.366;2022-12-29T00:10:08;85251.60;;;0.40
74533;BMP180;63012;51.096;-115.366;2022-12-29T00:12:35;85252.00;;;0.38
74533;BMP180;63012;51.096;-115.366;2022-12-29T00:15:20;85257.20;;;0.30
74533;BMP180;63012;51.096;-115.366;2022-12-29T00:18:06;85263.60;;;0.22
74533;BMP180;63012;51.096;-115.366;2022-12-29T00:20:36;85259.20;;;0.20
74533;BMP180;63012;51.096;-115.366;2022-12-29T00:23:22;85255.60;;;0.20
74533;BMP180;63012;51.096;-115.366;2022-12-29T00:26:17;85256.80;;;0.20
74533;BMP180;63012;51.096;-115.366;2022-12-29T00:29:03;85268.40;;;0.14
74533;BMP180;63012;51.096;-115.366;2022-12-29T00:31:49;85270.40;;;0.10
74533;BMP180;63012;51.096;-115.366;2022-12-29T00:34:34;85266.40;;;0.04
74533;BMP180;63012;51.096;-115.366;2022-12-29T00:37:20;85275.60;;;0.00
74533;BMP180;63012;51.096;-115.366;2022-12-29T00:40:07;85280.60;;;0.00
74533;BMP180;63012;51.096;-115.366;2022-12-29T00:42:53;85278.20;;;0.00
74533;BMP180;63012;51.096;-115.366;2022-12-29T00:45:41;85282.80;;;0.00
74533;BMP180;63012;51.096;-115.366;2022-12-29T00:48:08;85287.20;;;0.00
74533;BMP180;63012;51.096;-115.366;2022-12-29T00:50:35;85287.00;;;0.00
74533;BMP180;63012;51.096;-115.366;2022-12-29T00:53:03;85289.80;;;0.00
74533;BMP180;63012;51.096;-115.366;2022-12-29T00:55:30;85291.00;;;0.00
74533;BMP180;63012;51.096;-115.366;2022-12-29T00:57:57;85294.20;;;0.00
74533;BMP180;63012;51.096;-115.366;2022-12-29T01:00:25;85296.40;;;-0.10
74533;BMP180;63012;51.096;-115.366;2022-12-29T01:02:52;85296.20;;;-0.10
74533;BMP180;63012;51.096;-115.366;2022-12-29T01:05:19;85296.80;;;-0.10
74533;BMP180;63012;51.096;-115.366;2022-12-29T01:07:47;85303.20;;;-0.14
74533;BMP180;63012;51.096;-115.366;2022-12-29T01:10:14;85293.20;;;-0.20
74533;BMP180;63012;51.096;-115.366;2022-12-29T01:12:41;85294.40;;;-0.20
74533;BMP180;63012;51.096;-115.366;2022-12-29T01:15:13;85303.00;;;-0.20
74533;BMP180;63012;51.096;-115.366;2022-12-29T01:17:41;85301.80;;;-0.20
74533;BMP180;63012;51.096;-115.366;2022-12-29T01:20:09;85305.00;;;-0.20
74533;BMP180;63012;51.096;-115.366;2022-12-29T01:22:37;85307.20;;;-0.22
74533;BMP180;63012;51.096;-115.366;2022-12-29T01:25:05;85304.40;;;-0.28
74533;BMP180;63012;51.096;-115.366;2022-12-29T01:27:32;85312.40;;;-0.20
74533;BMP180;63012;51.096;-115.366;2022-12-29T01:29:59;85311.40;;;-0.20
74533;BMP180;63012;51.096;-115.366;2022-12-29T01:32:26;85317.60;;;-0.20
74533;BMP180;63012;51.096;-115.366;2022-12-29T01:34:54;85323.20;;;-0.20
74533;BMP180;63012;51.096;-115.366;2022-12-29T01:37:21;85324.20;;;-0.20
74533;BMP180;63012;51.096;-115.366;2022-12-29T01:39:48;85323.00;;;-0.20
74533;BMP180;63012;51.096;-115.366;2022-12-29T01:42:23;85331.20;;;-0.22
74533;BMP180;63012;51.096;-115.366;2022-12-29T01:44:55;85330.60;;;-0.22
74533;BMP180;63012;51.096;-115.366;2022-12-29T01:47:40;85335.60;;;-0.22
74533;BMP180;63012;51.096;-115.366;2022-12-29T01:50:31;85336.00;;;-0.30
74533;BMP180;63012;51.096;-115.366;2022-12-29T01:53:18;85332.00;;;-0.30
74533;BMP180;63012;51.096;-115.366;2022-12-29T01:55:57;85330.60;;;-0.30
74533;BMP180;63012;51.096;-115.366;2022-12-29T01:58:34;85330.80;;;-0.30
74533;BMP180;63012;51.096;-115.366;2022-12-29T02:01:03;85343.00;;;-0.30
74533;BMP180;63012;51.096;-115.366;2022-12-29T02:03:31;85346.00;;;-0.30
74533;BMP180;63012;51.096;-115.366;2022-12-29T02:06:29;85345.60;;;-0.30
74533;BMP180;63012;51.096;-115.366;2022-12-29T02:08:56;85344.20;;;-0.40
74533;BMP180;63012;51.096;-115.366;2022-12-29T02:11:26;85346.20;;;-0.40
74533;BMP180;63012;51.096;-115.366;2022-12-29T02:13:53;85348.20;;;-0.40
74533;BMP180;63012;51.096;-115.366;2022-12-29T02:17:01;85355.20;;;-0.42
74533;BMP180;63012;51.096;-115.366;2022-12-29T02:20:06;85355.80;;;-0.50
74533;BMP180;63012;51.096;-115.366;2022-12-29T02:29:04;85359.00;;;-0.50
74533;BMP180;63012;51.096;-115.366;2022-12-29T02:31:57;85352.20;;;-0.50
74533;BMP180;63012;51.096;-115.366;2022-12-29T02:37:48;85358.60;;;-0.60
74533;BMP180;63012;51.096;-115.366;2022-12-29T02:43:44;85363.00;;;-0.68
74533;BMP180;63012;51.096;-115.366;2022-12-29T02:49:54;85373.60;;;-0.70
74533;BMP180;63012;51.096;-115.366;2022-12-29T02:52:16;85372.40;;;-0.70
74533;BMP180;63012;51.096;-115.366;2022-12-29T02:54:44;85375.60;;;-0.70
74533;BMP180;63012;51.096;-115.366;2022-12-29T03:00:01;85371.00;;;-0.76
74533;BMP180;63012;51.096;-115.366;2022-12-29T03:03:16;85372.60;;;-0.80
74533;BMP180;63012;51.096;-115.366;2022-12-29T03:06:11;85369.00;;;-0.80
74533;BMP180;63012;51.096;-115.366;2022-12-29T03:08:59;85373.60;;;-0.80
74533;BMP180;63012;51.096;-115.366;2022-12-29T03:11:41;85368.60;;;-0.84
74533;BMP180;63012;51.096;-115.366;2022-12-29T03:14:44;85376.20;;;-0.90
74533;BMP180;63012;51.096;-115.366;2022-12-29T03:18:10;85377.20;;;-0.90
74533;BMP180;63012;51.096;-115.366;2022-12-29T03:20:55;85379.20;;;-0.90
74533;BMP180;63012;51.096;-115.366;2022-12-29T03:23:26;85386.40;;;-0.90
74533;BMP180;63012;51.096;-115.366;2022-12-29T03:25:59;85387.20;;;-0.90
74533;BMP180;63012;51.096;-115.366;2022-12-29T03:28:38;85382.80;;;-0.90
74533;BMP180;63012;51.096;-115.366;2022-12-29T03:31:08;85384.40;;;-0.90
74533;BMP180;63012;51.096;-115.366;2022-12-29T03:33:39;85388.20;;;-0.90
74533;BMP180;63012;51.096;-115.366;2022-12-29T03:36:16;85376.40;;;-0.90
74533;BMP180;63012;51.096;-115.366;2022-12-29T03:38:58;85389.00;;;-0.94
74533;BMP180;63012;51.096;-115.366;2022-12-29T03:41:31;85395.60;;;-1.00
74533;BMP180;63012;51.096;-115.366;2022-12-29T03:43:59;85393.00;;;-1.00
74533;BMP180;63012;51.096;-115.366;2022-12-29T03:46:27;85396.20;;;-0.96
74533;BMP180;63012;51.096;-115.366;2022-12-29T03:48:54;85402.40;;;-0.92
74533;BMP180;63012;51.096;-115.366;2022-12-29T03:51:21;85397.40;;;-1.00
74533;BMP180;63012;51.096;-115.366;2022-12-29T03:53:48;85404.00;;;-1.00
74533;BMP180;63012;51.096;-115.366;2022-12-29T03:56:15;85412.40;;;-1.00
74533;BMP180;63012;51.096;-115.366;2022-12-29T03:58:43;85409.00;;;-0.94
74533;BMP180;63012;51.096;-115.366;2022-12-29T04:01:10;85403.20;;;-0.94
74533;BMP180;63012;51.096;-115.366;2022-12-29T04:03:37;85401.40;;;-1.00
74533;BMP180;63012;51.096;-115.366;2022-12-29T04:06:05;85402.60;;;-1.00
74533;BMP180;63012;51.096;-115.366;2022-12-29T04:08:32;85401.80;;;-1.00
74533;BMP180;63012;51.096;-115.366;2022-12-29T04:10:59;85399.00;;;-1.00
74533;BMP180;63012;51.096;-115.366;2022-12-29T04:13:26;85396.00;;;-1.00
74533;BMP180;63012;51.096;-115.366;2022-12-29T04:15:54;85400.60;;;-1.00
74533;BMP180;63012;51.096;-115.366;2022-12-29T04:18:21;85401.80;;;-1.00
74533;BMP180;63012;51.096;-115.366;2022-12-29T04:20:48;85402.20;;;-1.02
74533;BMP180;63012;51.096;-115.366;2022-12-29T04:23:38;85405.60;;;-1.04
74533;BMP180;63012;51.096;-115.366;2022-12-29T04:26:07;85406.80;;;-1.02
74533;BMP180;63012;51.096;-115.366;2022-12-29T04:28:36;85404.20;;;-1.00
74533;BMP180;63012;51.096;-115.366;2022-12-29T04:31:04;85406.20;;;-1.06
74533;BMP180;63012;51.096;-115.366;2022-12-29T04:33:31;85405.00;;;-1.10
74533;BMP180;63012;51.096;-115.366;2022-12-29T04:35:59;85408.20;;;-1.10
74533;BMP180;63012;51.096;-115.366;2022-12-29T04:38:26;85406.40;;;-1.10
74533;BMP180;63012;51.096;-115.366;2022-12-29T04:40:53;85399.20;;;-1.10
74533;BMP180;63012;51.096;-115.366;2022-12-29T04:43:20;85408.00;;;-1.10
74533;BMP180;63012;51.096;-115.366;2022-12-29T04:45:49;85406.80;;;-1.10
74533;BMP180;63012;51.096;-115.366;2022-12-29T04:48:16;85402.60;;;-1.12
74533;BMP180;63012;51.096;-115.366;2022-12-29T04:50:43;85413.20;;;-1.18
74533;BMP180;63012;51.096;-115.366;2022-12-29T04:53:11;85410.00;;;-1.20
74533;BMP180;63012;51.096;-115.366;2022-12-29T04:55:38;85414.00;;;-1.20
74533;BMP180;63012;51.096;-115.366;2022-12-29T04:58:05;85420.80;;;-1.18
74533;BMP180;63012;51.096;-115.366;2022-12-29T05:00:33;85420.80;;;-1.18
74533;BMP180;63012;51.096;-115.366;2022-12-29T05:03:00;85419.00;;;-1.20
74533;BMP180;63012;51.096;-115.366;2022-12-29T05:05:27;85419.60;;;-1.20
74533;BMP180;63012;51.096;-115.366;2022-12-29T05:07:54;85428.00;;;-1.20
74533;BMP180;63012;51.096;-115.366;2022-12-29T05:10:22;85421.60;;;-1.20
74533;BMP180;63012;51.096;-115.366;2022-12-29T05:12:49;85429.40;;;-1.20
74533;BMP180;63012;51.096;-115.366;2022-12-29T05:15:17;85424.80;;;-1.20
74533;BMP180;63012;51.096;-115.366;2022-12-29T05:17:44;85428.20;;;-1.20
74533;BMP180;63012;51.096;-115.366;2022-12-29T05:20:11;85426.20;;;-1.30
74533;BMP180;63012;51.096;-115.366;2022-12-29T05:22:39;85426.40;;;-1.30
74533;BMP180;63012;51.096;-115.366;2022-12-29T05:25:06;85429.20;;;-1.30
74533;BMP180;63012;51.096;-115.366;2022-12-29T05:27:33;85429.40;;;-1.40
74533;BMP180;63012;51.096;-115.366;2022-12-29T05:30:00;85428.20;;;-1.40
74533;BMP180;63012;51.096;-115.366;2022-12-29T05:32:27;85429.00;;;-1.40
74533;BMP180;63012;51.096;-115.366;2022-12-29T05:34:55;85424.00;;;-1.40
74533;BMP180;63012;51.096;-115.366;2022-12-29T05:37:22;85436.40;;;-1.40
74533;BMP180;63012;51.096;-115.366;2022-12-29T05:39:49;85440.60;;;-1.40
74533;BMP180;63012;51.096;-115.366;2022-12-29T05:42:16;85445.00;;;-1.50
74533;BMP180;63012;51.096;-115.366;2022-12-29T05:44:43;85440.00;;;-1.50
74533;BMP180;63012;51.096;-115.366;2022-12-29T05:47:10;85442.80;;;-1.50
74533;BMP180;63012;51.096;-115.366;2022-12-29T05:49:37;85443.40;;;-1.50
74533;BMP180;63012;51.096;-115.366;2022-12-29T05:52:05;85436.60;;;-1.50
74533;BMP180;63012;51.096;-115.366;2022-12-29T05:54:32;85445.80;;;-1.60
74533;BMP180;63012;51.096;-115.366;2022-12-29T05:56:59;85445.80;;;-1.60
74533;BMP180;63012;51.096;-115.366;2022-12-29T05:59:26;85444.20;;;-1.60
74533;BMP180;63012;51.096;-115.366;2022-12-29T06:01:53;85445.80;;;-1.60
74533;BMP180;63012;51.096;-115.366;2022-12-29T06:04:20;85451.00;;;-1.60
74533;BMP180;63012;51.096;-115.366;2022-12-29T06:06:47;85445.40;;;-1.68
74533;BMP180;63012;51.096;-115.366;2022-12-29T06:09:14;85446.60;;;-1.70
74533;BMP180;63012;51.096;-115.366;2022-12-29T06:11:41;85447.20;;;-1.70
74533;BMP180;63012;51.096;-115.366;2022-12-29T06:14:09;85456.60;;;-1.70
74533;BMP180;63012;51.096;-115.366;2022-12-29T06:16:37;85454.20;;;-1.70
74533;BMP180;63012;51.096;-115.366;2022-12-29T06:19:04;85457.60;;;-1.74
74533;BMP180;63012;51.096;-115.366;2022-12-29T06:21:31;85456.20;;;-1.80
74533;BMP180;63012;51.096;-115.366;2022-12-29T06:23:58;85449.40;;;-1.80
74533;BMP180;63012;51.096;-115.366;2022-12-29T06:26:25;85465.20;;;-1.80
74533;BMP180;63012;51.096;-115.366;2022-12-29T06:28:52;85457.60;;;-1.88
74533;BMP180;63012;51.096;-115.366;2022-12-29T06:31:19;85457.00;;;-1.86
74533;BMP180;63012;51.096;-115.366;2022-12-29T06:33:46;85458.00;;;-1.82
74533;BMP180;63012;51.096;-115.366;2022-12-29T06:36:13;85453.20;;;-1.80
74533;BMP180;63012;51.096;-115.366;2022-12-29T06:38:40;85456.00;;;-1.82
74533;BMP180;63012;51.096;-115.366;2022-12-29T06:41:08;85460.20;;;-1.86
74533;BMP180;63012;51.096;-115.366;2022-12-29T06:43:35;85460.60;;;-1.90
74533;BMP180;63012;51.096;-115.366;2022-12-29T06:46:05;85466.40;;;-1.90
74533;BMP180;63012;51.096;-115.366;2022-12-29T06:48:32;85460.60;;;-1.90
74533;BMP180;63012;51.096;-115.366;2022-12-29T06:50:59;85471.80;;;-1.90
74533;BMP180;63012;51.096;-115.366;2022-12-29T06:53:26;85465.60;;;-1.90
74533;BMP180;63012;51.096;-115.366;2022-12-29T06:55:53;85461.40;;;-1.90
74533;BMP180;63012;51.096;-115.366;2022-12-29T06:58:20;85458.00;;;-1.90
74533;BMP180;63012;51.096;-115.366;2022-12-29T07:00:47;85462.60;;;-1.90
74533;BMP180;63012;51.096;-115.366;2022-12-29T07:03:14;85453.20;;;-1.90
74533;BMP180;63012;51.096;-115.366;2022-12-29T07:05:41;85463.00;;;-1.90
74533;BMP180;63012;51.096;-115.366;2022-12-29T07:08:08;85461.40;;;-1.90
74533;BMP180;63012;51.096;-115.366;2022-12-29T07:10:35;85460.60;;;-2.00
74533;BMP180;63012;51.096;-115.366;2022-12-29T07:13:02;85459.40;;;-1.92
74533;BMP180;63012;51.096;-115.366;2022-12-29T07:15:28;85456.80;;;-1.98
74533;BMP180;63012;51.096;-115.366;2022-12-29T07:17:55;85464.40;;;-1.92
74533;BMP180;63012;51.096;-115.366;2022-12-29T07:20:22;85466.20;;;-1.92
74533;BMP180;63012;51.096;-115.366;2022-12-29T07:22:49;85461.80;;;-2.00
74533;BMP180;63012;51.096;-115.366;2022-12-29T07:30:27;85457.00;;;-2.00
74533;BMP180;63012;51.096;-115.366;2022-12-29T07:32:54;85457.40;;;-1.98
74533;BMP180;63012;51.096;-115.366;2022-12-29T07:35:21;85460.60;;;-1.94
74533;BMP180;63012;51.096;-115.366;2022-12-29T07:37:48;85460.20;;;-1.90
74533;BMP180;63012;51.096;-115.366;2022-12-29T07:40:15;85453.60;;;-1.90
74533;BMP180;63012;51.096;-115.366;2022-12-29T07:42:41;85458.20;;;-2.00
74533;BMP180;63012;51.096;-115.366;2022-12-29T07:45:09;85467.20;;;-2.00
74533;BMP180;63012;51.096;-115.366;2022-12-29T07:47:37;85462.20;;;-2.00
74533;BMP180;63012;51.096;-115.366;2022-12-29T07:50:05;85463.20;;;-2.00
74533;BMP180;63012;51.096;-115.366;2022-12-29T07:52:32;85470.00;;;-2.00
74533;BMP180;63012;51.096;-115.366;2022-12-29T07:55:00;85474.00;;;-2.06
74533;BMP180;63012;51.096;-115.366;2022-12-29T07:57:27;85470.40;;;-2.10
74533;BMP180;63012;51.096;-115.366;2022-12-29T07:59:54;85470.60;;;-2.10
74533;BMP180;63012;51.096;-115.366;2022-12-29T08:02:21;85472.00;;;-2.10
74533;BMP180;63012;51.096;-115.366;2022-12-29T08:04:48;85475.40;;;-2.10
74533;BMP180;63012;51.096;-115.366;2022-12-29T08:07:15;85476.00;;;-2.20
74533;BMP180;63012;51.096;-115.366;2022-12-29T08:09:42;85479.40;;;-2.30
74533;BMP180;63012;51.096;-115.366;2022-12-29T08:12:10;85477.40;;;-2.30
74533;BMP180;63012;51.096;-115.366;2022-12-29T08:14:37;85478.40;;;-2.30
74533;BMP180;63012;51.096;-115.366;2022-12-29T08:17:05;85481.40;;;-2.30
74533;BMP180;63012;51.096;-115.366;2022-12-29T08:19:32;85495.40;;;-2.30
74533;BMP180;63012;51.096;-115.366;2022-12-29T08:21:59;85481.40;;;-2.40
74533;BMP180;63012;51.096;-115.366;2022-12-29T08:24:26;85482.60;;;-2.50
74533;BMP180;63012;51.096;-115.366;2022-12-29T08:26:53;85489.80;;;-2.58
74533;BMP180;63012;51.096;-115.366;2022-12-29T08:29:21;85481.40;;;-2.64
74533;BMP180;63012;51.096;-115.366;2022-12-29T08:31:48;85484.00;;;-2.70
74533;BMP180;63012;51.096;-115.366;2022-12-29T08:34:15;85477.00;;;-2.70
74533;BMP180;63012;51.096;-115.366;2022-12-29T08:36:42;85471.40;;;-2.70
74533;BMP180;63012;51.096;-115.366;2022-12-29T08:39:10;85477.40;;;-2.74
74533;BMP180;63012;51.096;-115.366;2022-12-29T08:41:37;85475.80;;;-2.80
74533;BMP180;63012;51.096;-115.366;2022-12-29T08:44:05;85482.40;;;-2.80
74533;BMP180;63012;51.096;-115.366;2022-12-29T08:46:32;85474.80;;;-2.80
74533;BMP180;63012;51.096;-115.366;2022-12-29T08:49:00;85474.80;;;-2.82
74533;BMP180;63012;51.096;-115.366;2022-12-29T08:51:27;85475.40;;;-2.80
74533;BMP180;63012;51.096;-115.366;2022-12-29T08:53:54;85469.00;;;-2.80
74533;BMP180;63012;51.096;-115.366;2022-12-29T08:56:21;85475.60;;;-2.90
74533;BMP180;63012;51.096;-115.366;2022-12-29T08:58:51;85473.60;;;-2.90
74533;BMP180;63012;51.096;-115.366;2022-12-29T09:01:19;85476.80;;;-2.90
74533;BMP180;63012;51.096;-115.366;2022-12-29T09:03:47;85474.60;;;-2.90
74533;BMP180;63012;51.096;-115.366;2022-12-29T09:13:38;85470.60;;;-3.00
74533;BMP180;63012;51.096;-115.366;2022-12-29T09:16:05;85477.60;;;-2.94
74533;BMP180;63012;51.096;-115.366;2022-12-29T09:18:33;85481.20;;;-2.90
74533;BMP180;63012;51.096;-115.366;2022-12-29T09:21:03;85478.60;;;-2.96
74533;BMP180;63012;51.096;-115.366;2022-12-29T09:23:31;85469.00;;;-2.94
74533;BMP180;63012;51.096;-115.366;2022-12-29T09:25:58;85474.20;;;-2.90
74533;BMP180;63012;51.096;-115.366;2022-12-29T09:28:26;85469.20;;;-2.90
74533;BMP180;63012;51.096;-115.366;2022-12-29T09:30:56;85479.20;;;-2.90
74533;BMP180;63012;51.096;-115.366;2022-12-29T09:33:24;85480.60;;;-2.90
74533;BMP180;63012;51.096;-115.366;2022-12-29T09:35:55;85482.40;;;-2.90
74533;BMP180;63012;51.096;-115.366;2022-12-29T09:38:25;85483.20;;;-2.90
74533;BMP180;63012;51.096;-115.366;2022-12-29T09:40:56;85481.80;;;-2.90
74533;BMP180;63012;51.096;-115.366;2022-12-29T09:44:37;85487.40;;;-2.90
74533;BMP180;63012;51.096;-115.366;2022-12-29T09:46:47;85491.60;;;-2.80
74533;BMP180;63012;51.096;-115.366;2022-12-29T09:52:21;85497.80;;;-2.80
74533;BMP180;63012;51.096;-115.366;2022-12-29T09:54:59;85498.40;;;-2.80
74533;BMP180;63012;51.096;-115.366;2022-12-29T09:57:38;85500.40;;;-2.80
74533;BMP180;63012;51.096;-115.366;2022-12-29T10:01:06;85497.40;;;-2.80
74533;BMP180;63012;51.096;-115.366;2022-12-29T10:03:50;85498.80;;;-2.80
74533;BMP180;63012;51.096;-115.366;2022-12-29T10:06:57;85494.60;;;-2.86
74533;BMP180;63012;51.096;-115.366;2022-12-29T10:24:13;85512.80;;;-2.60
74533;BMP180;63012;51.096;-115.366;2022-12-29T10:26:44;85515.60;;;-2.60
74533;BMP180;63012;51.096;-115.366;2022-12-29T10:29:20;85509.20;;;-2.52
74533;BMP180;63012;51.096;-115.366;2022-12-29T10:31:58;85515.00;;;-2.50
74533;BMP180;63012;51.096;-115.366;2022-12-29T10:34:39;85520.00;;;-2.50
74533;BMP180;63012;51.096;-115.366;2022-12-29T10:38:04;85525.20;;;-2.50
74533;BMP180;63012;51.096;-115.366;2022-12-29T10:40:58;85520.00;;;-2.50
74533;BMP180;63012;51.096;-115.366;2022-12-29T10:43:29;85517.80;;;-2.42
74533;BMP180;63012;51.096;-115.366;2022-12-29T10:46:05;85514.80;;;-2.40
74533;BMP180;63012;51.096;-115.366;2022-12-29T10:48:36;85517.80;;;-2.40
74533;BMP180;63012;51.096;-115.366;2022-12-29T10:51:07;85514.40;;;-2.40
74533;BMP180;63012;51.096;-115.366;2022-12-29T10:53:59;85514.00;;;-2.40
74533;BMP180;63012;51.096;-115.366;2022-12-29T10:56:38;85515.60;;;-2.40
74533;BMP180;63012;51.096;-115.366;2022-12-29T10:59:29;85510.40;;;-2.40
74533;BMP180;63012;51.096;-115.366;2022-12-29T11:08:33;85518.80;;;-2.50
74533;BMP180;63012;51.096;-115.366;2022-12-29T11:11:05;85514.60;;;-2.50
74533;BMP180;63012;51.096;-115.366;2022-12-29T11:14:31;85512.00;;;-2.50
74533;BMP180;63012;51.096;-115.366;2022-12-29T11:16:41;85517.80;;;-2.50
74533;BMP180;63012;51.096;-115.366;2022-12-29T11:19:33;85514.00;;;-2.50
74533;BMP180;63012;51.096;-115.366;2022-12-29T11:22:27;85513.20;;;-2.50
74533;BMP180;63012;51.096;-115.366;2022-12-29T11:25:05;85511.80;;;-2.50
74533;BMP180;63012;51.096;-115.366;2022-12-29T11:27:33;85511.00;;;-2.50
74533;BMP180;63012;51.096;-115.366;2022-12-29T11:30:00;85516.60;;;-2.50
74533;BMP180;63012;51.096;-115.366;2022-12-29T11:32:30;85517.60;;;-2.50
74533;BMP180;63012;51.096;-115.366;2022-12-29T11:34:58;85515.80;;;-2.50
74533;BMP180;63012;51.096;-115.366;2022-12-29T11:37:39;85515.80;;;-2.50
74533;BMP180;63012;51.096;-115.366;2022-12-29T11:40:20;85518.60;;;-2.40
74533;BMP180;63012;51.096;-115.366;2022-12-29T11:42:53;85523.20;;;-2.40
74533;BMP180;63012;51.096;-115.366;2022-12-29T11:45:26;85519.20;;;-2.30
74533;BMP180;63012;51.096;-115.366;2022-12-29T11:48:19;85531.80;;;-2.30
74533;BMP180;63012;51.096;-115.366;2022-12-29T11:50:54;85532.20;;;-2.30
74533;BMP180;63012;51.096;-115.366;2022-12-29T11:53:59;85541.00;;;-2.30
74533;BMP180;63012;51.096;-115.366;2022-12-29T11:56:39;85545.20;;;-2.30
74533;BMP180;63012;51.096;-115.366;2022-12-29T12:01:59;85544.00;;;-2.40
74533;BMP180;63012;51.096;-115.366;2022-12-29T12:04:35;85545.40;;;-2.40
74533;BMP180;63012;51.096;-115.366;2022-12-29T12:07:39;85534.60;;;-2.40
74533;BMP180;63012;51.096;-115.366;2022-12-29T12:10:35;85535.40;;;-2.40
74533;BMP180;63012;51.096;-115.366;2022-12-29T12:13:40;85529.00;;;-2.36
74533;BMP180;63012;51.096;-115.366;2022-12-29T12:16:59;85528.20;;;-2.30
74533;BMP180;63012;51.096;-115.366;2022-12-29T12:19:59;85529.40;;;-2.20
74533;BMP180;63012;51.096;-115.366;2022-12-29T12:22:51;85531.80;;;-2.10
74533;BMP180;63012;51.096;-115.366;2022-12-29T12:25:41;85534.40;;;-2.00
74533;BMP180;63012;51.096;-115.366;2022-12-29T12:30:58;85521.60;;;-2.00
74533;BMP180;63012;51.096;-115.366;2022-12-29T12:33:42;85512.20;;;-1.90
74533;BMP180;63012;51.096;-115.366;2022-12-29T12:36:44;85518.40;;;-1.84
74533;BMP180;63012;51.096;-115.366;2022-12-29T13:00:28;85510.20;;;-1.50
74533;BMP180;63012;51.096;-115.366;2022-12-29T13:03:23;85510.60;;;-1.50
74533;BMP180;63012;51.096;-115.366;2022-12-29T13:12:10;85518.20;;;-1.60
74533;BMP180;63012;51.096;-115.366;2022-12-29T13:18:18;85522.60;;;-1.70
74533;BMP180;63012;51.096;-115.366;2022-12-29T13:20:54;85530.80;;;-1.70
74533;BMP180;63012;51.096;-115.366;2022-12-29T13:23:56;85527.80;;;-1.70
74533;BMP180;63012;51.096;-115.366;2022-12-29T13:26:44;85523.60;;;-1.60
74533;BMP180;63012;51.096;-115.366;2022-12-29T13:29:41;85534.40;;;-1.60
74533;BMP180;63012;51.096;-115.366;2022-12-29T13:32:44;85534.40;;;-1.50
74533;BMP180;63012;51.096;-115.366;2022-12-29T13:35:59;85545.00;;;-1.40
74533;BMP180;63012;51.096;-115.366;2022-12-29T13:38:54;85546.00;;;-1.30
74533;BMP180;63012;51.096;-115.366;2022-12-29T13:41:57;85547.20;;;-1.20
74533;BMP180;63012;51.096;-115.366;2022-12-29T13:44:28;85551.40;;;-1.20
74533;BMP180;63012;51.096;-115.366;2022-12-29T13:47:05;85555.40;;;-1.20
74533;BMP180;63012;51.096;-115.366;2022-12-29T13:49:37;85548.20;;;-1.10
74533;BMP180;63012;51.096;-115.366;2022-12-29T13:52:21;85547.00;;;-1.10
74533;BMP180;63012;51.096;-115.366;2022-12-29T13:55:40;85558.40;;;-1.00
74533;BMP180;63012;51.096;-115.366;2022-12-29T13:58:14;85562.40;;;-1.00
74533;BMP180;63012;51.096;-115.366;2022-12-29T14:03:51;85558.80;;;-1.00
74533;BMP180;63012;51.096;-115.366;2022-12-29T14:06:24;85560.60;;;-1.00
74533;BMP180;63012;51.096;-115.366;2022-12-29T14:09:04;85567.40;;;-1.00
74533;BMP180;63012;51.096;-115.366;2022-12-29T14:11:40;85573.20;;;-1.00
74533;BMP180;63012;51.096;-115.366;2022-12-29T14:16:49;85563.20;;;-1.00
74533;BMP180;63012;51.096;-115.366;2022-12-29T14:19:26;85566.80;;;-1.00
74533;BMP180;63012;51.096;-115.366;2022-12-29T14:22:02;85563.60;;;-1.08
74533;BMP180;63012;51.096;-115.366;2022-12-29T14:35:40;85549.20;;;-1.00
74533;BMP180;63012;51.096;-115.366;2022-12-29T14:38:29;85545.40;;;-1.00
74533;BMP180;63012;51.096;-115.366;2022-12-29T14:41:18;85555.40;;;-1.00
74533;BMP180;63012;51.096;-115.366;2022-12-29T14:44:19;85548.00;;;-1.00
74533;BMP180;63012;51.096;-115.366;2022-12-29T14:47:00;85543.60;;;-1.00
74533;BMP180;63012;51.096;-115.366;2022-12-29T14:49:40;85547.40;;;-1.10
74533;BMP180;63012;51.096;-115.366;2022-12-29T14:52:29;85549.60;;;-1.10
74533;BMP180;63012;51.096;-115.366;2022-12-29T14:55:43;85553.80;;;-1.18
74533;BMP180;63012;51.096;-115.366;2022-12-29T14:58:28;85569.40;;;-1.20
74533;BMP180;63012;51.096;-115.366;2022-12-29T15:00:56;85560.80;;;-1.22
74533;BMP180;63012;51.096;-115.366;2022-12-29T15:03:46;85569.60;;;-1.22
74533;BMP180;63012;51.096;-115.366;2022-12-29T15:06:17;85568.20;;;-1.20
74533;BMP180;63012;51.096;-115.366;2022-12-29T15:09:03;85568.20;;;-1.20
74533;BMP180;63012;51.096;-115.366;2022-12-29T15:14:34;85575.80;;;-1.20
74533;BMP180;63012;51.096;-115.366;2022-12-29T15:17:10;85580.40;;;-1.20
74533;BMP180;63012;51.096;-115.366;2022-12-29T15:19:38;85578.00;;;-1.20
74533;BMP180;63012;51.096;-115.366;2022-12-29T15:22:06;85575.20;;;-1.20
74533;BMP180;63012;51.096;-115.366;2022-12-29T15:24:34;85584.80;;;-1.20
74533;BMP180;63012;51.096;-115.366;2022-12-29T15:27:04;85574.40;;;-1.14
74533;BMP180;63012;51.096;-115.366;2022-12-29T15:29:44;85578.60;;;-1.10
74533;BMP180;63012;51.096;-115.366;2022-12-29T15:32:24;85575.00;;;-1.12
74533;BMP180;63012;51.096;-115.366;2022-12-29T15:34:56;85580.60;;;-1.12
74533;BMP180;63012;51.096;-115.366;2022-12-29T15:37:34;85582.20;;;-1.20
74533;BMP180;63012;51.096;-115.366;2022-12-29T15:40:02;85582.60;;;-1.20
74533;BMP180;63012;51.096;-115.366;2022-12-29T15:45:35;85578.60;;;-1.20
74533;BMP180;63012;51.096;-115.366;2022-12-29T15:48:04;85582.20;;;-1.20
74533;BMP180;63012;51.096;-115.366;2022-12-29T15:50:35;85589.20;;;-1.20
74533;BMP180;63012;51.096;-115.366;2022-12-29T15:53:12;85596.20;;;-1.30
74533;BMP180;63012;51.096;-115.366;2022-12-29T15:55:42;85584.60;;;-1.30
74533;BMP180;63012;51.096;-115.366;2022-12-29T15:58:27;85579.20;;;-1.30
74533;BMP180;63012;51.096;-115.366;2022-12-29T16:01:02;85590.60;;;-1.30
74533;BMP180;63012;51.096;-115.366;2022-12-29T16:03:34;85589.40;;;-1.30
74533;BMP180;63012;51.096;-115.366;2022-12-29T16:06:35;85589.80;;;-1.30
74533;BMP180;63012;51.096;-115.366;2022-12-29T16:09:11;85592.00;;;-1.22
74533;BMP180;63012;51.096;-115.366;2022-12-29T16:11:49;85590.20;;;-1.20